sensor_id;sensor_type;location;lat;lon;timestamp;pressure;altitude;pressure_sealevel;temperature;humidity
14269;BME280;7218;51.480;7.006;2023-05-10T00:00:59;99683.84;;;12.86;100.00
14269;BME280;7218;51.480;7.006;2023-05-10T00:03:25;99690.81;;;12.87;100.00
14269;BME280;7218;51.480;7.006;2023-05-10T00:05:52;99691.78;;;12.85;100.00
14269;BME280;7218;51.480;7.006;2023-05-10T00:08:18;99692.06;;;12.77;100.00
14269;BME280;7218;51.480;7.006;2023-05-10T00:10:46;99680.66;;;13.02;100.00
14269;BME280;7218;51.480;7.006;2023-05-10T00:13:13;99690.53;;;12.95;100.00
14269;BME280;7218;51.480;7.006;2023-05-10T00:15:39;99684.66;;;12.88;100.00
14269;BME280;7218;51.480;7.006;2023-05-10T00:18:06;99689.59;;;12.96;100.00
14269;BME280;7218;51.480;7.006;2023-05-10T00:20:33;99677.72;;;12.87;100.00
14269;BME280;7218;51.480;7.006;2023-05-10T00:22:59;99687.38;;;12.85;100.00
14269;BME280;7218;51.480;7.006;2023-05-10T00:25:26;99683.56;;;12.94;100.00
14269;BME280;7218;51.480;7.006;2023-05-10T00:27:53;99692.38;;;12.91;100.00
14269;BME280;7218;51.480;7.006;2023-05-10T00:30:20;99682.41;;;12.79;100.00
14269;BME280;7218;51.480;7.006;2023-05-10T00:32:46;99682.13;;;12.64;100.00
14269;BME280;7218;51.480;7.006;2023-05-10T00:35:15;99681.38;;;12.83;100.00
14269;BME280;7218;51.480;7.006;2023-05-10T00:37:41;99683.41;;;12.99;100.00
14269;BME280;7218;51.480;7.006;2023-05-10T00:40:08;99683.84;;;12.86;100.00
14269;BME280;7218;51.480;7.006;2023-05-10T00:42:34;99685.28;;;12.95;100.00
14269;BME280;7218;51.480;7.006;2023-05-10T00:45:03;99685.69;;;12.84;100.00
14269;BME280;7218;51.480;7.006;2023-05-10T00:47:29;99692.47;;;12.43;100.00
14269;BME280;7218;51.480;7.006;2023-05-10T00:49:56;99678.41;;;12.46;100.00
14269;BME280;7218;51.480;7.006;2023-05-10T00:52:23;99686.84;;;12.54;100.00
14269;BME280;7218;51.480;7.006;2023-05-10T00:54:50;99687.56;;;12.58;100.00
14269;BME280;7218;51.480;7.006;2023-05-10T00:57:18;99686.66;;;12.59;100.00
14269;BME280;7218;51.480;7.006;2023-05-10T00:59:44;99684.66;;;12.65;100.00
14269;BME280;7218;51.480;7.006;2023-05-10T01:02:13;99690.47;;;12.73;100.00
14269;BME280;7218;51.480;7.006;2023-05-10T01:04:39;99695.06;;;12.67;100.00
14269;BME280;7218;51.480;7.006;2023-05-10T01:07:06;99687.41;;;12.62;100.00
14269;BME280;7218;51.480;7.006;2023-05-10T01:09:33;99695.03;;;12.68;100.00
14269;BME280;7218;51.480;7.006;2023-05-10T01:12:00;99693.31;;;12.44;100.00
14269;BME280;7218;51.480;7.006;2023-05-10T01:14:28;99701.84;;;12.49;100.00
14269;BME280;7218;51.480;7.006;2023-05-10T01:16:54;99698.19;;;12.53;100.00
14269;BME280;7218;51.480;7.006;2023-05-10T01:19:25;99701.50;;;12.58;100.00
14269;BME280;7218;51.480;7.006;2023-05-10T01:22:00;99709.69;;;12.49;100.00
14269;BME280;7218;51.480;7.006;2023-05-10T01:24:43;99703.31;;;12.56;100.00
14269;BME280;7218;51.480;7.006;2023-05-10T01:27:21;99709.00;;;12.67;100.00
14269;BME280;7218;51.480;7.006;2023-05-10T01:30:04;99705.88;;;12.58;100.00
14269;BME280;7218;51.480;7.006;2023-05-10T01:32:40;99705.94;;;12.56;100.00
14269;BME280;7218;51.480;7.006;2023-05-10T01:35:12;99706.38;;;12.44;100.00
14269;BME280;7218;51.480;7.006;2023-05-10T01:37:46;99707.63;;;12.57;100.00
14269;BME280;7218;51.480;7.006;2023-05-10T01:40:20;99705.34;;;12.48;100.00
14269;BME280;7218;51.480;7.006;2023-05-10T01:42:51;99710.72;;;12.45;100.00
14269;BME280;7218;51.480;7.006;2023-05-10T01:45:24;99710.59;;;12.48;100.00
14269;BME280;7218;51.480;7.006;2023-05-10T01:47:59;99705.41;;;12.46;100.00
14269;BME280;7218;51.480;7.006;2023-05-10T01:50:30;99710.16;;;12.35;100.00
14269;BME280;7218;51.480;7.006;2023-05-10T01:52:59;99720.50;;;12.40;100.00
14269;BME280;7218;51.480;7.006;2023-05-10T01:55:29;99709.38;;;12.33;100.00
14269;BME280;7218;51.480;7.006;2023-05-10T01:58:01;99716.09;;;12.40;100.00
14269;BME280;7218;51.480;7.006;2023-05-10T02:00:29;99723.34;;;12.32;100.00
14269;BME280;7218;51.480;7.006;2023-05-10T02:02:59;99722.28;;;12.38;100.00
14269;BME280;7218;51.480;7.006;2023-05-10T02:05:27;99724.91;;;12.38;100.00
14269;BME280;7218;51.480;7.006;2023-05-10T02:07:56;99723.84;;;12.43;100.00
14269;BME280;7218;51.480;7.006;2023-05-10T02:10:23;99724.22;;;12.33;100.00
14269;BME280;7218;51.480;7.006;2023-05-10T02:12:51;99724.69;;;12.44;100.00
14269;BME280;7218;51.480;7.006;2023-05-10T02:15:22;99721.94;;;12.47;100.00
14269;BME280;7218;51.480;7.006;2023-05-10T02:17:50;99727.63;;;12.35;100.00
14269;BME280;7218;51.480;7.006;2023-05-10T02:20:19;99731.03;;;12.37;100.00
14269;BME280;7218;51.480;7.006;2023-05-10T02:22:49;99730.00;;;12.41;100.00
14269;BME280;7218;51.480;7.006;2023-05-10T02:25:17;99732.34;;;12.25;100.00
14269;BME280;7218;51.480;7.006;2023-05-10T02:27:46;99731.94;;;12.36;100.00
14269;BME280;7218;51.480;7.006;2023-05-10T02:30:14;99734.56;;;12.36;100.00
14269;BME280;7218;51.480;7.006;2023-05-10T02:32:42;99731.88;;;12.37;100.00
14269;BME280;7218;51.480;7.006;2023-05-10T02:35:09;99730.84;;;12.18;100.00
14269;BME280;7218;51.480;7.006;2023-05-10T02:37:39;99732.38;;;12.24;100.00
14269;BME280;7218;51.480;7.006;2023-05-10T02:40:07;99727.84;;;12.29;100.00
14269;BME280;7218;51.480;7.006;2023-05-10T02:42:37;99734.72;;;12.31;100.00
14269;BME280;7218;51.480;7.006;2023-05-10T02:45:07;99731.00;;;12.38;100.00
14269;BME280;7218;51.480;7.006;2023-05-10T02:47:35;99727.53;;;12.13;100.00
14269;BME280;7218;51.480;7.006;2023-05-10T02:50:01;99721.03;;;12.25;100.00
14269;BME280;7218;51.480;7.006;2023-05-10T02:52:30;99720.78;;;12.31;100.00
14269;BME280;7218;51.480;7.006;2023-05-10T02:55:04;99727.56;;;12.36;100.00
14269;BME280;7218;51.480;7.006;2023-05-10T02:57:33;99724.94;;;12.36;100.00
14269;BME280;7218;51.480;7.006;2023-05-10T03:00:00;99725.97;;;12.32;100.00
14269;BME280;7218;51.480;7.006;2023-05-10T03:02:28;99724.25;;;12.31;100.00
14269;BME280;7218;51.480;7.006;2023-05-10T03:04:55;99725.81;;;12.37;100.00
14269;BME280;7218;51.480;7.006;2023-05-10T03:07:22;99730.69;;;12.46;100.00
14269;BME280;7218;51.480;7.006;2023-05-10T03:09:49;99729.97;;;12.42;100.00
14269;BME280;7218;51.480;7.006;2023-05-10T03:12:23;99736.00;;;12.44;100.00
14269;BME280;7218;51.480;7.006;2023-05-10T03:14:57;99734.47;;;12.39;100.00
14269;BME280;7218;51.480;7.006;2023-05-10T03:17:41;99732.06;;;12.56;100.00
14269;BME280;7218;51.480;7.006;2023-05-10T03:20:16;99743.09;;;12.41;100.00
14269;BME280;7218;51.480;7.006;2023-05-10T03:22:47;99738.19;;;12.32;100.00
14269;BME280;7218;51.480;7.006;2023-05-10T03:25:16;99744.09;;;12.37;100.00
14269;BME280;7218;51.480;7.006;2023-05-10T03:27:45;99745.88;;;12.36;100.00
14269;BME280;7218;51.480;7.006;2023-05-10T03:30:12;99751.59;;;11.96;100.00
14269;BME280;7218;51.480;7.006;2023-05-10T03:32:39;99753.13;;;12.03;100.00
14269;BME280;7218;51.480;7.006;2023-05-10T03:35:07;99750.34;;;12.08;100.00
14269;BME280;7218;51.480;7.006;2023-05-10T03:37:34;99749.25;;;12.15;100.00
14269;BME280;7218;51.480;7.006;2023-05-10T03:40:00;99748.84;;;12.01;100.00
14269;BME280;7218;51.480;7.006;2023-05-10T03:42:27;99757.38;;;12.06;100.00
14269;BME280;7218;51.480;7.006;2023-05-10T03:44:55;99755.69;;;12.05;100.00
14269;BME280;7218;51.480;7.006;2023-05-10T03:47:21;99763.19;;;11.89;100.00
14269;BME280;7218;51.480;7.006;2023-05-10T03:49:48;99762.66;;;12.04;100.00
14269;BME280;7218;51.480;7.006;2023-05-10T03:52:14;99764.78;;;12.20;100.00
14269;BME280;7218;51.480;7.006;2023-05-10T03:54:41;99761.63;;;12.35;100.00
14269;BME280;7218;51.480;7.006;2023-05-10T03:57:07;99761.69;;;12.07;100.00
14269;BME280;7218;51.480;7.006;2023-05-10T03:59:34;99753.88;;;12.32;100.00
14269;BME280;7218;51.480;7.006;2023-05-10T04:02:02;99763.06;;;12.19;100.00
14269;BME280;7218;51.480;7.006;2023-05-10T04:04:29;99765.91;;;12.11;100.00
14269;BME280;7218;51.480;7.006;2023-05-10T04:06:55;99759.25;;;12.27;100.00
14269;BME280;7218;51.480;7.006;2023-05-10T04:09:21;99760.13;;;12.01;100.00
14269;BME280;7218;51.480;7.006;2023-05-10T04:11:48;99761.53;;;12.12;100.00
14269;BME280;7218;51.480;7.006;2023-05-10T04:14:15;99766.56;;;12.18;100.00
14269;BME280;7218;51.480;7.006;2023-05-10T04:16:41;99770.75;;;12.23;100.00
14269;BME280;7218;51.480;7.006;2023-05-10T04:19:09;99764.81;;;12.43;100.00
14269;BME280;7218;51.480;7.006;2023-05-10T04:21:36;99762.41;;;12.37;100.00
14269;BME280;7218;51.480;7.006;2023-05-10T04:24:03;99766.91;;;12.33;100.00
14269;BME280;7218;51.480;7.006;2023-05-10T04:26:29;99774.41;;;12.18;100.00
14269;BME280;7218;51.480;7.006;2023-05-10T04:28:56;99767.47;;;12.17;100.00
14269;BME280;7218;51.480;7.006;2023-05-10T04:31:22;99775.03;;;11.99;100.00
14269;BME280;7218;51.480;7.006;2023-05-10T04:33:49;99780.16;;;12.02;100.00
14269;BME280;7218;51.480;7.006;2023-05-10T04:36:17;99774.91;;;12.29;100.00
14269;BME280;7218;51.480;7.006;2023-05-10T04:38:43;99775.16;;;12.21;100.00
14269;BME280;7218;51.480;7.006;2023-05-10T04:41:10;99784.13;;;12.14;100.00
14269;BME280;7218;51.480;7.006;2023-05-10T04:43:37;99782.97;;;11.96;100.00
14269;BME280;7218;51.480;7.006;2023-05-10T04:46:04;99780.97;;;12.04;100.00
14269;BME280;7218;51.480;7.006;2023-05-10T04:48:31;99779.25;;;12.03;100.00
14269;BME280;7218;51.480;7.006;2023-05-10T04:50:57;99773.81;;;12.10;100.00
14269;BME280;7218;51.480;7.006;2023-05-10T04:53:25;99780.38;;;12.21;100.00
14269;BME280;7218;51.480;7.006;2023-05-10T04:55:51;99782.06;;;12.24;100.00
14269;BME280;7218;51.480;7.006;2023-05-10T04:58:18;99784.88;;;12.18;100.00
14269;BME280;7218;51.480;7.006;2023-05-10T05:00:44;99789.53;;;12.34;100.00
14269;BME280;7218;51.480;7.006;2023-05-10T05:03:11;99783.94;;;12.45;100.00
14269;BME280;7218;51.480;7.006;2023-05-10T05:05:37;99780.22;;;12.50;100.00
14269;BME280;7218;51.480;7.006;2023-05-10T05:08:04;99780.69;;;12.62;100.00
14269;BME280;7218;51.480;7.006;2023-05-10T05:10:32;99785.38;;;12.77;100.00
14269;BME280;7218;51.480;7.006;2023-05-10T05:12:58;99783.97;;;12.68;100.00
14269;BME280;7218;51.480;7.006;2023-05-10T05:15:25;99792.50;;;12.73;100.00
14269;BME280;7218;51.480;7.006;2023-05-10T05:17:51;99791.97;;;12.64;100.00
14269;BME280;7218;51.480;7.006;2023-05-10T05:20:18;99801.00;;;12.55;100.00
14269;BME280;7218;51.480;7.006;2023-05-10T05:22:45;99804.03;;;12.43;100.00
14269;BME280;7218;51.480;7.006;2023-05-10T05:25:11;99806.50;;;12.47;100.00
14269;BME280;7218;51.480;7.006;2023-05-10T05:27:39;99800.19;;;12.53;100.00
14269;BME280;7218;51.480;7.006;2023-05-10T05:30:07;99800.06;;;12.56;100.00
14269;BME280;7218;51.480;7.006;2023-05-10T05:32:34;99802.81;;;12.53;100.00
14269;BME280;7218;51.480;7.006;2023-05-10T05:35:00;99807.50;;;12.68;100.00
14269;BME280;7218;51.480;7.006;2023-05-10T05:37:26;99810.81;;;12.48;100.00
14269;BME280;7218;51.480;7.006;2023-05-10T05:39:53;99814.38;;;12.71;100.00
14269;BME280;7218;51.480;7.006;2023-05-10T05:42:20;99810.13;;;12.68;100.00
14269;BME280;7218;51.480;7.006;2023-05-10T05:44:48;99810.81;;;12.73;100.00
14269;BME280;7218;51.480;7.006;2023-05-10T05:47:14;99819.72;;;12.68;100.00
14269;BME280;7218;51.480;7.006;2023-05-10T05:49:41;99818.06;;;12.65;100.00
14269;BME280;7218;51.480;7.006;2023-05-10T05:52:07;99818.75;;;12.70;100.00
14269;BME280;7218;51.480;7.006;2023-05-10T05:54:34;99821.31;;;12.72;100.00
14269;BME280;7218;51.480;7.006;2023-05-10T05:57:00;99819.91;;;12.63;100.00
14269;BME280;7218;51.480;7.006;2023-05-10T05:59:27;99822.91;;;12.76;100.00
14269;BME280;7218;51.480;7.006;2023-05-10T06:01:55;99831.00;;;12.94;100.00
14269;BME280;7218;51.480;7.006;2023-05-10T06:04:21;99823.91;;;12.97;100.00
14269;BME280;7218;51.480;7.006;2023-05-10T06:06:48;99834.34;;;12.98;100.00
14269;BME280;7218;51.480;7.006;2023-05-10T06:09:14;99827.38;;;13.22;100.00
14269;BME280;7218;51.480;7.006;2023-05-10T06:11:41;99839.34;;;13.29;100.00
14269;BME280;7218;51.480;7.006;2023-05-10T06:14:08;99843.09;;;13.22;100.00
14269;BME280;7218;51.480;7.006;2023-05-10T06:16:34;99840.19;;;13.29;100.00
14269;BME280;7218;51.480;7.006;2023-05-10T06:19:02;99849.28;;;13.43;100.00
14269;BME280;7218;51.480;7.006;2023-05-10T06:21:29;99843.94;;;13.22;100.00
14269;BME280;7218;51.480;7.006;2023-05-10T06:23:56;99855.56;;;13.39;100.00
14269;BME280;7218;51.480;7.006;2023-05-10T06:26:22;99859.44;;;13.28;100.00
14269;BME280;7218;51.480;7.006;2023-05-10T06:28:49;99850.38;;;12.89;100.00
14269;BME280;7218;51.480;7.006;2023-05-10T06:31:15;99853.91;;;13.13;100.00
14269;BME280;7218;51.480;7.006;2023-05-10T06:33:42;99857.84;;;13.24;100.00
14269;BME280;7218;51.480;7.006;2023-05-10T06:36:10;99853.03;;;12.87;100.00
14269;BME280;7218;51.480;7.006;2023-05-10T06:38:37;99856.00;;;13.02;100.00
14269;BME280;7218;51.480;7.006;2023-05-10T06:41:03;99861.38;;;12.74;100.00
14269;BME280;7218;51.480;7.006;2023-05-10T06:43:30;99868.59;;;13.17;100.00
14269;BME280;7218;51.480;7.006;2023-05-10T06:45:57;99873.53;;;13.48;100.00
14269;BME280;7218;51.480;7.006;2023-05-10T06:48:24;99864.59;;;13.53;100.00
14269;BME280;7218;51.480;7.006;2023-05-10T06:50:50;99867.78;;;13.61;100.00
14269;BME280;7218;51.480;7.006;2023-05-10T06:53:18;99871.06;;;13.66;100.00
14269;BME280;7218;51.480;7.006;2023-05-10T06:55:45;99872.41;;;13.31;100.00
14269;BME280;7218;51.480;7.006;2023-05-10T06:58:11;99882.34;;;13.45;100.00
14269;BME280;7218;51.480;7.006;2023-05-10T07:00:38;99873.78;;;13.87;100.00
14269;BME280;7218;51.480;7.006;2023-05-10T07:03:05;99877.66;;;13.55;100.00
14269;BME280;7218;51.480;7.006;2023-05-10T07:05:32;99880.00;;;13.84;100.00
14269;BME280;7218;51.480;7.006;2023-05-10T07:07:58;99879.38;;;14.21;100.00
14269;BME280;7218;51.480;7.006;2023-05-10T07:10:26;99883.47;;;13.85;100.00
14269;BME280;7218;51.480;7.006;2023-05-10T07:12:53;99878.78;;;13.93;100.00
14269;BME280;7218;51.480;7.006;2023-05-10T07:15:19;99878.69;;;14.39;100.00
14269;BME280;7218;51.480;7.006;2023-05-10T07:17:46;99884.88;;;14.37;100.00
14269;BME280;7218;51.480;7.006;2023-05-10T07:20:12;99877.75;;;14.60;100.00
14269;BME280;7218;51.480;7.006;2023-05-10T07:22:39;99880.78;;;14.08;100.00
14269;BME280;7218;51.480;7.006;2023-05-10T07:25:06;99879.06;;;14.50;100.00
14269;BME280;7218;51.480;7.006;2023-05-10T07:27:34;99874.88;;;14.46;100.00
14269;BME280;7218;51.480;7.006;2023-05-10T07:30:01;99876.00;;;14.61;100.00
14269;BME280;7218;51.480;7.006;2023-05-10T07:32:27;99876.44;;;14.50;100.00
14269;BME280;7218;51.480;7.006;2023-05-10T07:34:54;99875.97;;;14.41;100.00
14269;BME280;7218;51.480;7.006;2023-05-10T07:37:20;99882.19;;;14.16;100.00
14269;BME280;7218;51.480;7.006;2023-05-10T07:39:47;99881.72;;;14.07;100.00
14269;BME280;7218;51.480;7.006;2023-05-10T07:42:13;99885.06;;;14.10;100.00
14269;BME280;7218;51.480;7.006;2023-05-10T07:44:41;99881.34;;;14.16;100.00
14269;BME280;7218;51.480;7.006;2023-05-10T07:47:08;99885.25;;;14.06;100.00
14269;BME280;7218;51.480;7.006;2023-05-10T07:49:34;99883.00;;;14.18;100.00
14269;BME280;7218;51.480;7.006;2023-05-10T07:52:02;99895.88;;;14.25;100.00
14269;BME280;7218;51.480;7.006;2023-05-10T07:54:29;99890.09;;;14.15;100.00
14269;BME280;7218;51.480;7.006;2023-05-10T07:56:55;99897.75;;;13.99;100.00
14269;BME280;7218;51.480;7.006;2023-05-10T07:59:22;99891.59;;;14.22;100.00
14269;BME280;7218;51.480;7.006;2023-05-10T08:01:50;99896.25;;;14.37;100.00
14269;BME280;7218;51.480;7.006;2023-05-10T08:04:16;99902.81;;;14.04;100.00
14269;BME280;7218;51.480;7.006;2023-05-10T08:06:43;99900.38;;;13.99;100.00
14269;BME280;7218;51.480;7.006;2023-05-10T08:09:09;99901.88;;;14.27;100.00
14269;BME280;7218;51.480;7.006;2023-05-10T08:11:36;99903.66;;;14.26;100.00
14269;BME280;7218;51.480;7.006;2023-05-10T08:14:02;99902.41;;;14.36;100.00
14269;BME280;7218;51.480;7.006;2023-05-10T08:16:29;99908.88;;;13.83;100.00
14269;BME280;7218;51.480;7.006;2023-05-10T08:18:56;99911.94;;;13.94;100.00
14269;BME280;7218;51.480;7.006;2023-05-10T08:21:23;99917.22;;;14.37;100.00
14269;BME280;7218;51.480;7.006;2023-05-10T08:23:49;99920.09;;;14.30;100.00
14269;BME280;7218;51.480;7.006;2023-05-10T08:26:16;99928.56;;;14.38;100.00
14269;BME280;7218;51.480;7.006;2023-05-10T08:28:42;99921.44;;;14.41;100.00
14269;BME280;7218;51.480;7.006;2023-05-10T08:31:09;99919.84;;;14.37;100.00
14269;BME280;7218;51.480;7.006;2023-05-10T08:33:35;99928.72;;;14.55;100.00
14269;BME280;7218;51.480;7.006;2023-05-10T08:36:03;99926.72;;;14.82;100.00
14269;BME280;7218;51.480;7.006;2023-05-10T08:38:30;99937.47;;;14.76;100.00
14269;BME280;7218;51.480;7.006;2023-05-10T08:40:57;99934.09;;;14.52;100.00
14269;BME280;7218;51.480;7.006;2023-05-10T08:43:26;99942.16;;;14.04;100.00
14269;BME280;7218;51.480;7.006;2023-05-10T08:45:54;99945.34;;;13.89;100.00
14269;BME280;7218;51.480;7.006;2023-05-10T08:48:22;99945.81;;;14.21;100.00
14269;BME280;7218;51.480;7.006;2023-05-10T08:50:52;99952.28;;;13.66;100.00
14269;BME280;7218;51.480;7.006;2023-05-10T08:53:20;99952.06;;;13.96;100.00
14269;BME280;7218;51.480;7.006;2023-05-10T08:55:50;99956.56;;;13.92;100.00
14269;BME280;7218;51.480;7.006;2023-05-10T08:58:16;99952.94;;;13.73;100.00
14269;BME280;7218;51.480;7.006;2023-05-10T09:00:44;99959.81;;;13.75;100.00
14269;BME280;7218;51.480;7.006;2023-05-10T09:03:11;99957.84;;;13.59;100.00
14269;BME280;7218;51.480;7.006;2023-05-10T09:05:38;99956.47;;;13.49;100.00
14269;BME280;7218;51.480;7.006;2023-05-10T09:08:07;99954.50;;;14.00;100.00
14269;BME280;7218;51.480;7.006;2023-05-10T09:10:36;99956.44;;;14.40;100.00
14269;BME280;7218;51.480;7.006;2023-05-10T09:13:04;99950.72;;;14.52;100.00
14269;BME280;7218;51.480;7.006;2023-05-10T09:15:31;99952.59;;;15.52;100.00
14269;BME280;7218;51.480;7.006;2023-05-10T09:17:58;99949.75;;;15.56;100.00
14269;BME280;7218;51.480;7.006;2023-05-10T09:20:27;99961.13;;;15.36;100.00
14269;BME280;7218;51.480;7.006;2023-05-10T09:22:53;99958.31;;;15.00;100.00
14269;BME280;7218;51.480;7.006;2023-05-10T09:25:20;99961.59;;;15.26;100.00
14269;BME280;7218;51.480;7.006;2023-05-10T09:27:49;99960.28;;;15.56;100.00
14269;BME280;7218;51.480;7.006;2023-05-10T09:30:17;99962.84;;;14.97;100.00
14269;BME280;7218;51.480;7.006;2023-05-10T09:32:45;99970.84;;;15.34;100.00
14269;BME280;7218;51.480;7.006;2023-05-10T09:35:13;99975.78;;;15.01;100.00
14269;BME280;7218;51.480;7.006;2023-05-10T09:37:40;99975.31;;;15.12;100.00
14269;BME280;7218;51.480;7.006;2023-05-10T09:40:12;99979.53;;;14.09;100.00
14269;BME280;7218;51.480;7.006;2023-05-10T09:42:38;99991.31;;;13.26;100.00
14269;BME280;7218;51.480;7.006;2023-05-10T09:45:07;99984.44;;;13.71;100.00
14269;BME280;7218;51.480;7.006;2023-05-10T09:47:35;99988.88;;;13.69;100.00
14269;BME280;7218;51.480;7.006;2023-05-10T09:50:02;99996.66;;;13.71;100.00
14269;BME280;7218;51.480;7.006;2023-05-10T09:52:30;99994.97;;;13.70;100.00
14269;BME280;7218;51.480;7.006;2023-05-10T09:54:56;99992.97;;;14.23;100.00
14269;BME280;7218;51.480;7.006;2023-05-10T09:57:24;99991.28;;;14.65;100.00
14269;BME280;7218;51.480;7.006;2023-05-10T09:59:52;99992.72;;;14.29;100.00
14269;BME280;7218;51.480;7.006;2023-05-10T10:02:21;99998.47;;;14.60;100.00
14269;BME280;7218;51.480;7.006;2023-05-10T10:04:55;99994.88;;;14.63;100.00
14269;BME280;7218;51.480;7.006;2023-05-10T10:07:22;99997.13;;;14.50;100.00
14269;BME280;7218;51.480;7.006;2023-05-10T10:09:50;100000.94;;;14.43;100.00
14269;BME280;7218;51.480;7.006;2023-05-10T10:12:17;100003.47;;;14.67;100.00
14269;BME280;7218;51.480;7.006;2023-05-10T10:14:45;99992.97;;;14.88;100.00
14269;BME280;7218;51.480;7.006;2023-05-10T10:17:12;100002.03;;;15.01;100.00
14269;BME280;7218;51.480;7.006;2023-05-10T10:19:41;100001.19;;;15.01;100.00
14269;BME280;7218;51.480;7.006;2023-05-10T10:22:07;99999.63;;;15.58;100.00
14269;BME280;7218;51.480;7.006;2023-05-10T10:24:36;100002.34;;;15.34;100.00
14269;BME280;7218;51.480;7.006;2023-05-10T10:27:09;100007.72;;;15.53;100.00
14269;BME280;7218;51.480;7.006;2023-05-10T10:29:43;99998.09;;;15.72;100.00
14269;BME280;7218;51.480;7.006;2023-05-10T10:32:21;100006.25;;;15.46;100.00
14269;BME280;7218;51.480;7.006;2023-05-10T10:34:51;100005.38;;;15.45;100.00
14269;BME280;7218;51.480;7.006;2023-05-10T10:37:18;100010.78;;;15.42;100.00
14269;BME280;7218;51.480;7.006;2023-05-10T10:39:47;100006.19;;;15.27;100.00
14269;BME280;7218;51.480;7.006;2023-05-10T10:42:44;100016.75;;;15.05;100.00
14269;BME280;7218;51.480;7.006;2023-05-10T10:45:12;100026.94;;;15.13;100.00
14269;BME280;7218;51.480;7.006;2023-05-10T10:47:38;100026.13;;;15.11;100.00
14269;BME280;7218;51.480;7.006;2023-05-10T10:50:07;100028.88;;;14.44;100.00
14269;BME280;7218;51.480;7.006;2023-05-10T10:52:36;100028.38;;;14.78;100.00
14269;BME280;7218;51.480;7.006;2023-05-10T10:55:04;100029.94;;;15.04;100.00
14269;BME280;7218;51.480;7.006;2023-05-10T10:57:32;100023.78;;;15.25;100.00
14269;BME280;7218;51.480;7.006;2023-05-10T11:02:57;100029.84;;;14.85;100.00
14269;BME280;7218;51.480;7.006;2023-05-10T11:05:41;100034.69;;;15.16;100.00
14269;BME280;7218;51.480;7.006;2023-05-10T11:08:13;100037.88;;;15.02;100.00
14269;BME280;7218;51.480;7.006;2023-05-10T11:10:48;100037.97;;;15.21;100.00
14269;BME280;7218;51.480;7.006;2023-05-10T11:13:26;100043.00;;;15.68;100.00
14269;BME280;7218;51.480;7.006;2023-05-10T11:15:53;100035.75;;;15.32;100.00
14269;BME280;7218;51.480;7.006;2023-05-10T11:18:24;100044.53;;;15.53;100.00
14269;BME280;7218;51.480;7.006;2023-05-10T11:20:56;100044.75;;;15.27;100.00
14269;BME280;7218;51.480;7.006;2023-05-10T11:23:23;100039.47;;;15.27;100.00
14269;BME280;7218;51.480;7.006;2023-05-10T11:25:50;100046.94;;;15.58;100.00
14269;BME280;7218;51.480;7.006;2023-05-10T11:28:17;100046.78;;;15.61;100.00
14269;BME280;7218;51.480;7.006;2023-05-10T11:30:45;100040.81;;;15.37;100.00
14269;BME280;7218;51.480;7.006;2023-05-10T11:33:15;100050.19;;;15.22;100.00
14269;BME280;7218;51.480;7.006;2023-05-10T11:35:42;100050.31;;;15.19;100.00
14269;BME280;7218;51.480;7.006;2023-05-10T11:38:11;100053.59;;;15.24;100.00
14269;BME280;7218;51.480;7.006;2023-05-10T11:40:39;100047.94;;;15.13;100.00
14269;BME280;7218;51.480;7.006;2023-05-10T11:43:05;100063.78;;;14.90;100.00
14269;BME280;7218;51.480;7.006;2023-05-10T11:45:32;100064.53;;;14.72;100.00
14269;BME280;7218;51.480;7.006;2023-05-10T11:47:59;100059.88;;;14.10;100.00
14269;BME280;7218;51.480;7.006;2023-05-10T11:50:26;100059.41;;;14.69;100.00
14269;BME280;7218;51.480;7.006;2023-05-10T11:52:53;100065.66;;;15.08;100.00
14269;BME280;7218;51.480;7.006;2023-05-10T11:55:21;100053.25;;;15.54;100.00
14269;BME280;7218;51.480;7.006;2023-05-10T11:57:51;100057.03;;;15.87;100.00
14269;BME280;7218;51.480;7.006;2023-05-10T12:00:18;100051.50;;;15.93;100.00
14269;BME280;7218;51.480;7.006;2023-05-10T12:02:45;100055.22;;;15.69;100.00
14269;BME280;7218;51.480;7.006;2023-05-10T12:05:12;100062.91;;;15.73;100.00
14269;BME280;7218;51.480;7.006;2023-05-10T12:07:39;100058.53;;;15.92;100.00
14269;BME280;7218;51.480;7.006;2023-05-10T12:10:06;100057.34;;;16.37;100.00
14269;BME280;7218;51.480;7.006;2023-05-10T12:12:41;100055.13;;;16.84;95.81
14269;BME280;7218;51.480;7.006;2023-05-10T12:15:12;100059.84;;;16.77;96.65
14269;BME280;7218;51.480;7.006;2023-05-10T12:17:43;100062.91;;;17.04;94.63
14269;BME280;7218;51.480;7.006;2023-05-10T12:20:14;100063.06;;;17.18;91.01
14269;BME280;7218;51.480;7.006;2023-05-10T12:22:40;100071.88;;;17.00;91.60
14269;BME280;7218;51.480;7.006;2023-05-10T12:25:09;100066.94;;;17.29;91.02
14269;BME280;7218;51.480;7.006;2023-05-10T12:27:36;100065.53;;;17.04;91.35
14269;BME280;7218;51.480;7.006;2023-05-10T12:30:05;100063.13;;;16.83;93.64
14269;BME280;7218;51.480;7.006;2023-05-10T12:32:38;100072.91;;;17.15;91.28
14269;BME280;7218;51.480;7.006;2023-05-10T12:35:06;100067.94;;;16.92;92.55
14269;BME280;7218;51.480;7.006;2023-05-10T12:37:33;100067.91;;;17.28;91.80
14269;BME280;7218;51.480;7.006;2023-05-10T12:40:01;100067.66;;;17.49;88.20
14269;BME280;7218;51.480;7.006;2023-05-10T12:42:28;100074.59;;;18.02;85.52
14269;BME280;7218;51.480;7.006;2023-05-10T12:44:55;100071.09;;;18.01;85.14
14269;BME280;7218;51.480;7.006;2023-05-10T12:47:23;100071.53;;;18.58;83.29
14269;BME280;7218;51.480;7.006;2023-05-10T12:49:50;100077.63;;;17.94;84.25
14269;BME280;7218;51.480;7.006;2023-05-10T12:52:16;100067.38;;;18.54;82.27
14269;BME280;7218;51.480;7.006;2023-05-10T12:54:43;100081.44;;;18.70;79.31
14269;BME280;7218;51.480;7.006;2023-05-10T12:57:09;100075.13;;;18.57;79.60
14269;BME280;7218;51.480;7.006;2023-05-10T12:59:36;100078.59;;;17.76;85.33
14269;BME280;7218;51.480;7.006;2023-05-10T13:02:02;100074.25;;;17.92;82.76
14269;BME280;7218;51.480;7.006;2023-05-10T13:04:30;100080.44;;;17.74;82.28